Station: KEITH AWS

  Atmospheric Gas Attenuation - ITU Rec 676-11   --------------- db/100km ---------------
Date Time Temp RH % AH g/m3 Dew Point Wind Direction Speed kph Gust kph Barometer mB Rainfall Since 9am 24GHz 47GHz 76GHz 122GHz 134GHz 241GHz
03 08:10 15.1 61 7.87 7.8 7 9 1013.1 0 18.0 24.4 36.3 95.1 87.4 300.2
03 08:00 14.7 65 8.18 8.2 4 6 1021.5 0 18.6 25.3 38.1 99.7 92.5 317.7
03 07:50 13.7 68 8.05 7.9 6 7 1013.1 0 18.4 25.0 37.7 98.7 91.3 313.7
03 07:40 12.9 72 8.12 8.1 4 4 1013.1 0 18.6 25.4 38.3 100.5 93.2 320.1
03 07:30 11.8 80 8.42 8.5 0 2 1021.5 0 19.3 26.5 40.4 106.0 99.2 341.0
03 07:20 10.6 87 8.49 8.5 2 2 1013.1 0 19.5 26.7 41.0 107.6 101.0 347.3
03 07:10 9.2 97 8.66 8.7 2 2 1013.1 0 19.9 27.4 42.4 111.5 105.3 362.0
03 07:00 8.3 99 8.35 8.2 2 4 1021.2 0 19.3 27.4 42.0 110.1 102.8 353.1
03 06:50 7.4 100 7.96 7.4 2 4 1013.1 0 18.5 26.7 40.4 106.0 97.8 335.6
03 06:40 6.7 100 7.6 6.7 2 4 1013.1 0 17.8 26.3 39.2 102.8 93.6 320.8
03 06:30 5.7 99 7.05 5.6 0 0 1020.7 0 16.6 26.0 37.7 98.7 87.7 299.8
03 06:20 5.1 99 6.78 4.9 0 0 1013.1 0 16.1 25.4 36.5 95.6 84.0 287.0
03 06:10 4.3 98 6.36 4 0 0 1013.1 0 15.2 24.9 35.1 91.8 79.1 269.5
03 06:00 3.4 97 5.93 3 0 0 1020.4 0 14.3 24.7 34.0 88.8 74.5 253.4
03 05:50 3.3 94 5.71 2.5 0 0 1013.1 0 13.8 24.1 32.8 85.8 71.1 241.6
03 05:40 3.8 94 5.9 3 2 2 1013.1 0 14.2 24.3 33.4 87.3 73.3 249.1
03 05:30 4.7 97 6.47 4.3 6 6 1020.2 0 15.4 25.3 35.7 93.3 80.7 275.1
03 05:20 4.3 93 6.04 3.2 4 4 1013.1 0 14.5 24.4 33.8 88.3 74.7 254.1
03 05:00 4.1 89 5.7 2.5 2 4 1020 0 13.8 24.1 32.8 85.4 70.7 240.1
03 04:50 5.3 91 6.31 3.9 2 2 1013.1 0 15.0 24.5 34.5 90.1 77.4 263.7
03 04:40 5 89 6.05 3.3 2 2 1013.1 0 14.5 24.2 33.5 87.6 74.2 252.3
03 04:30 4.9 88 5.94 3.1 4 4 1019.9 0 14.3 24.3 33.4 87.2 73.2 248.9
03 04:20 5.2 87 5.99 3.3 4 6 1013.1 0 14.4 24.0 33.2 86.7 73.2 248.9
03 04:10 4.8 85 5.7 2.5 6 6 1013.1 0 13.7 23.7 32.2 84.0 69.6 236.5
03 04:00 5.3 85 5.9 3 6 6 1020 0 14.2 24.1 33.1 86.3 72.3 245.8
03 03:50 5.3 84 5.83 2.8 6 6 1013.1 0 14.0 23.8 32.5 84.9 70.9 241.1
03 03:40 6 84 6.1 3.6 6 6 1013.1 0 14.6 24.0 33.3 87.0 73.9 251.5
03 03:30 6.5 85 6.38 4.2 6 7 1019.9 0 15.1 24.6 34.5 90.2 77.6 264.5
03 03:20 6.5 85 6.38 4.1 6 6 1013.1 0 15.1 24.3 34.2 89.5 77.1 263.0
03 03:10 6 84 6.1 3.5 4 4 1013.1 0 14.6 24.0 33.3 87.0 73.9 251.5
03 03:00 5.3 83 5.76 2.7 2 2 1019.8 0 13.9 23.9 32.5 84.8 70.4 239.2
03 02:50 4.7 81 5.4 1.7 2 2 1013.1 0 13.1 23.2 31.0 80.9 65.8 222.9
03 02:40 5.3 81 5.62 2.3 6 6 1013.1 0 13.6 23.4 31.7 82.6 68.1 231.3
03 02:30 5.9 81 5.84 2.9 4 6 1019.9 0 14.0 23.9 32.6 85.0 70.9 241.1
03 02:20 6 80 5.81 2.8 2 2 1013.1 0 13.9 23.5 32.1 83.9 70.0 238.0
03 02:10 6.7 80 6.08 3.6 2 2 1013.1 0 14.5 23.8 32.9 86.0 72.9 248.3
03 02:00 6.2 79 5.81 2.8 2 4 1019.9 0 13.9 23.7 32.3 84.3 70.3 238.8
03 01:50 6.3 76 5.63 2.5 0 0 1013.1 0 13.5 23.2 31.3 81.7 67.4 228.9
03 01:40 7 78 6.05 3.4 0 0 1013.1 0 14.4 23.7 32.7 85.4 72.3 246.0
03 01:30 7.4 77 6.13 3.6 0 0 1020 0 14.6 23.9 33.1 86.5 73.4 249.9
03 01:20 7.8 77 6.29 4 0 0 1013.1 0 14.9 23.8 33.3 87.1 74.7 254.5
03 01:10 7.8 77 6.29 4 0 0 1013.1 0 14.9 23.8 33.3 87.1 74.7 254.5
03 01:00 8.2 76 6.37 4.2 0 0 1020.2 0 15.1 24.1 33.8 88.2 75.8 258.4
03 00:50 8.8 75 6.53 4.6 0 0 1013.1 0 15.4 24.0 33.8 88.5 76.8 262.2
03 00:40 9.6 76 6.96 5.7 4 4 1013.1 0 16.3 24.4 35.2 92.2 81.6 279.2
03 00:30 9.3 76 6.83 5.3 6 6 1020.3 0 16.0 24.6 35.1 91.8 80.7 276.0
03 00:20 9.7 75 6.92 5.5 4 4 1013.1 0 16.2 24.3 35.0 91.6 81.0 277.0
03 00:10 10.2 76 7.23 6.1 6 7 1013.1 0 16.8 24.7 36.0 94.3 84.6 289.5
03 00:00 9.9 77 7.19 6.1 7 11 1020.2 0 16.7 25.0 36.3 95.0 84.9 290.5
02 23:50 9.4 74 6.69 5 7 7 1013.1 0 15.7 24.0 34.2 89.5 78.3 267.5
02 23:40 9.6 73 6.69 5 6 7 1013.1 0 15.7 24.0 34.1 89.3 78.1 266.9
02 23:30 10.1 72 6.81 5.3 6 7 1020.3 0 15.9 24.3 34.7 90.7 79.7 272.3
02 23:20 10 72 6.77 5.2 4 6 1013.1 0 15.8 24.0 34.3 89.7 78.7 269.2
02 23:10 10.4 70 6.75 5.3 6 7 1013.1 0 15.8 23.9 34.0 89.0 78.1 266.9
02 23:00 10.4 71 6.84 5.4 7 7 1020.4 0 16.0 24.3 34.7 90.7 79.8 272.6
02 22:50 11 71 7.11 5.9 7 7 1013.1 0 16.5 24.3 35.2 92.1 82.1 281.1
02 22:40 10.6 71 6.93 5.5 6 7 1013.1 0 16.2 24.1 34.7 90.7 80.2 274.4
02 22:30 10.3 68 6.51 4.7 7 9 1020.2 0 15.3 23.8 33.4 87.3 75.6 258.0
02 22:20 11.2 68 6.89 5.5 7 7 1013.1 0 16.0 23.9 34.2 89.6 79.1 270.5
02 22:10 11.5 65 6.71 5.3 9 11 1013.1 0 15.7 23.5 33.4 87.4 76.5 261.4
02 22:00 12.3 64 6.95 5.7 11 15 1019.8 0 16.1 23.9 34.3 89.6 79.2 271.0
02 21:50 12.6 63 6.97 5.7 11 13 1013.1 0 16.2 23.6 34.0 88.8 78.7 269.3
02 21:40 12.9 62 6.99 5.8 13 15 1013.1 0 16.2 23.6 33.9 88.7 78.6 269.2
02 21:30 13 61 6.92 5.7 15 20 1019.5 0 16.0 23.7 33.9 88.5 78.1 267.2
02 21:20 13.3 60 6.93 5.7 15 19 1013.1 0 16.1 23.4 33.5 87.6 77.5 265.2
02 21:10 13.6 59 6.94 5.7 20 22 1013.1 0 16.1 23.3 33.4 87.4 77.3 264.6
02 21:00 13.8 59 7.03 5.9 20 30 1018.9 0 16.2 23.6 33.9 88.6 78.6 269.2
02 20:50 13.8 59 7.03 6.1 19 22 1013.1 0 16.2 23.4 33.7 88.1 78.2 267.9
02 20:40 13.9 59 7.07 6.2 15 20 1013.1 0 16.3 23.5 33.8 88.4 78.6 269.3
02 20:30 14.2 59 7.2 6.3 17 24 1018.3 0 16.6 23.8 34.4 89.9 80.3 275.2
02 20:20 14.5 59 7.34 6.6 17 20 1013.1 0 16.9 23.7 34.6 90.5 81.4 279.0
02 20:10 14.8 58 7.35 6.6 17 20 1013.1 0 16.9 23.6 34.5 90.2 81.2 278.4
02 20:00 15.2 57 7.4 6.7 22 35 1017.7 0 17.0 23.8 34.7 90.7 81.7 280.3
02 19:50 15.5 55 7.27 6.5 24 28 1013.1 0 16.7 23.3 33.9 88.6 79.5 272.6
02 19:40 15.9 53 7.18 6.3 20 30 1013.1 0 16.5 23.1 33.4 87.3 78.0 267.4
02 19:30 16.3 52 7.21 6.4 24 35 1017.2 0 16.5 23.2 33.5 87.5 78.3 268.2
02 19:20 16.6 52 7.35 6.7 22 28 1013.1 0 16.8 23.2 33.7 88.2 79.4 272.3
02 19:10 16.9 52 7.48 7 26 30 1013.1 0 17.1 23.3 34.1 89.2 80.7 276.8
02 19:00 17.4 51 7.56 7.2 26 35 1017 0 17.2 23.4 34.3 89.8 81.4 279.3
02 18:50 17.4 50 7.41 7.1 28 35 1013.1 0 16.9 23.1 33.6 87.9 79.3 272.1
02 18:40 17.9 48 7.33 6.7 32 35 1013.1 0 16.7 22.8 33.1 86.6 77.9 267.1
02 18:30 18.2 48 7.46 7 30 39 1016.4 0 17.0 23.1 33.6 87.8 79.3 272.2
02 18:20 18.6 47 7.48 7.3 24 32 1013.1 0 17.0 22.9 33.4 87.3 79.0 271.0
02 18:10 18.6 47 7.48 7.3 28 41 1013.1 0 17.0 22.9 33.4 87.3 79.0 271.0
02 18:00 18.9 46 7.45 7 32 43 1016.1 0 16.9 22.9 33.2 87.0 78.5 269.4
02 17:50 18.9 45 7.29 6.7 37 43 1013.1 0 16.6 22.5 32.6 85.2 76.4 262.1
02 17:40 19.4 44 7.34 7.1 28 39 1013.1 0 16.7 22.5 32.5 85.1 76.5 262.6
02 17:30 19.9 45 7.73 7.6 30 41 1016 0 17.5 23.0 33.8 88.6 80.8 277.6
02 17:20 19.7 45 7.64 7.4 32 39 1013.1 0 17.3 22.8 33.5 87.6 79.8 273.9
02 17:10 20 46 7.95 8 35 41 1013.1 0 17.9 23.2 34.5 90.3 83.1 285.7
02 17:00 20.3 45 7.91 8 33 48 1015.8 0 17.8 23.2 34.3 89.8 82.5 283.6
02 16:50 20.6 44 7.87 8.2 33 37 1013.1 0 17.7 22.9 33.9 88.9 81.6 280.3
02 16:40 20.8 45 8.15 8.4 33 43 1013.1 0 18.3 23.3 34.8 91.3 84.6 291.2
02 16:30 21.3 43 8.01 8.2 33 44 1015.4 0 18.0 23.0 34.2 89.6 82.6 284.2
02 16:20 21.4 41 7.69 7.9 33 43 1013.1 0 17.3 22.5 33.0 86.3 78.7 270.3
02 16:10 22.4 41 8.14 8.5 30 37 1013.1 0 18.2 22.9 34.1 89.4 82.8 285.1
02 16:00 22.8 39 7.92 8.1 28 39 1014.9 0 17.7 22.5 33.3 87.1 80.0 275.2
02 15:50 23 41 8.43 9 24 32 1013.1 0 18.8 23.1 34.9 91.5 85.6 294.7
02 15:40 23.4 40 8.41 9 32 35 1013.1 0 18.7 23.0 34.7 90.9 84.9 292.4
02 15:30 22.9 41 8.38 9 30 41 1014.6 0 18.7 23.1 34.8 91.3 85.2 293.4

Last Refresh: 03-Dec-2021 08:17:00

Bureau of Meteorology